Time;durP1;ratioP1;P1;durP2;ratioP2;P2;SDS_P1;SDS_P2;PMS_P1;PMS_P2;Temp;Humidity;BMP_temperature;BMP_pressure;BME280_temperature;BME280_humidity;BME280_pressure;Samples;Min_cycle;Max_cycle;Signal;HPM_P1;HPM_P2
2022/12/08 00:00:46;;;;;;;5.93;0.50;;;3.80;99.90;;;;;;5075090;28;20127;-64
2022/12/08 00:03:12;;;;;;;3.90;0.68;;;1.30;99.90;;;;;;5059730;28;20043;-64
2022/12/08 00:11:12;;;;;;;8.02;0.90;;;2.10;99.90;;;;;;5074764;28;20040;-64
2022/12/08 00:13:37;;;;;;;8.02;0.90;;;1.30;99.90;;;;;;5073475;28;20051;-64
2022/12/08 00:16:03;;;;;;;11.10;0.85;;;2.50;99.90;;;;;;5076550;28;20032;-64
2022/12/08 00:18:29;;;;;;;5.80;1.00;;;3.40;99.90;;;;;;5059807;28;20040;-64
2022/12/08 00:20:56;;;;;;;9.20;0.70;;;2.80;99.90;;;;;;5074022;28;20043;-65
2022/12/08 00:23:22;;;;;;;6.70;0.60;;;3.70;99.90;;;;;;5075613;28;20108;-64
2022/12/08 00:25:47;;;;;;;6.38;1.10;;;3.40;99.90;;;;;;5075612;28;20040;-64
2022/12/08 00:28:13;;;;;;;8.85;1.08;;;2.10;99.90;;;;;;5052115;28;20048;-64
2022/12/08 00:30:40;;;;;;;5.63;0.65;;;3.70;99.90;;;;;;5074431;28;20127;-64
2022/12/08 00:33:06;;;;;;;8.07;0.90;;;3.70;99.90;;;;;;5107490;27;20064;-64
2022/12/08 00:35:31;;;;;;;7.25;0.73;;;1.10;99.90;;;;;;5074693;28;20051;-64
2022/12/08 00:37:57;;;;;;;4.38;0.80;;;3.60;99.90;;;;;;5058074;28;20619;-65
2022/12/08 00:40:23;;;;;;;7.00;0.73;;;3.40;99.90;;;;;;5058001;28;20039;-64
2022/12/08 00:42:48;;;;;;;7.40;0.88;;;3.60;99.90;;;;;;5055747;28;20121;-66
2022/12/08 00:45:14;;;;;;;7.20;0.98;;;2.50;99.90;;;;;;5058037;28;20193;-65
2022/12/08 00:47:40;;;;;;;4.55;0.47;;;1.80;99.90;;;;;;5072547;28;20108;-65
2022/12/08 00:50:06;;;;;;;7.30;0.50;;;1.60;99.90;;;;;;5105448;28;20436;-65
2022/12/08 00:52:32;;;;;;;8.35;0.40;;;0.90;99.90;;;;;;5072630;28;20083;-66
2022/12/08 00:54:58;;;;;;;4.68;0.22;;;2.40;99.90;;;;;;5090141;28;20776;-66
2022/12/08 00:57:23;;;;;;;4.93;0.30;;;3.40;99.90;;;;;;5078042;28;20558;-65
2022/12/08 00:59:49;;;;;;;3.63;0.20;;;2.80;99.90;;;;;;5102659;28;20467;-66
2022/12/08 01:02:15;;;;;;;3.45;0.30;;;1.70;99.90;;;;;;5075109;28;20063;-66
2022/12/08 01:04:40;;;;;;;5.85;0.40;;;3.40;99.90;;;;;;5074963;28;20362;-66
2022/12/08 01:07:06;;;;;;;1.50;0.10;;;1.80;99.90;;;;;;5075169;28;20317;-66
2022/12/08 01:09:32;;;;;;;6.32;0.20;;;3.10;99.90;;;;;;5075026;28;20341;-66
2022/12/08 01:11:58;;;;;;;3.55;0.20;;;1.80;99.90;;;;;;5042808;28;20028;-66
2022/12/08 01:14:24;;;;;;;3.28;0.50;;;3.30;99.90;;;;;;5104279;28;20585;-66
2022/12/08 01:16:49;;;;;;;6.55;0.30;;;1.30;99.90;;;;;;5074889;28;20098;-66
2022/12/08 01:19:16;;;;;;;5.47;0.30;;;2.40;99.90;;;;;;5089910;28;20039;-66
2022/12/08 01:21:44;;;;;;;4.43;0.13;;;3.20;99.90;;;;;;5090065;28;20071;-67
2022/12/08 01:24:15;;;;;;;3.25;0.20;;;2.90;99.90;;;;;;5076883;28;20035;-66
2022/12/08 01:26:42;;;;;;;1.90;0.10;;;3.40;99.90;;;;;;5105626;28;20040;-66
2022/12/08 01:29:08;;;;;;;4.00;0.10;;;2.90;99.90;;;;;;5045828;28;20553;-66
2022/12/08 01:31:34;;;;;;;2.58;0.15;;;0.80;99.90;;;;;;5055126;28;20659;-65
2022/12/08 01:34:00;;;;;;;3.58;0.15;;;3.10;99.90;;;;;;5058743;28;20093;-66
2022/12/08 01:36:28;;;;;;;1.15;0.00;;;0.60;99.90;;;;;;5055104;28;20044;-65
2022/12/08 01:38:57;;;;;;;2.30;0.08;;;1.20;99.90;;;;;;5104739;28;20043;-67
2022/12/08 01:41:26;;;;;;;3.38;0.10;;;2.80;99.90;;;;;;5106252;28;20129;-67
2022/12/08 01:44:23;;;;;;;4.70;0.10;;;2.90;99.90;;;;;;5061184;28;20138;-66
2022/12/08 01:46:49;;;;;;;1.63;0.00;;;2.70;99.90;;;;;;5075816;28;20453;-67
2022/12/08 01:49:23;;;;;;;1.38;0.10;;;2.80;99.90;;;;;;5094199;28;20075;-66
2022/12/08 01:51:59;;;;;;;2.75;0.13;;;2.00;99.90;;;;;;5080624;28;21239;-66
2022/12/08 01:54:29;;;;;;;2.00;0.10;;;0.20;99.90;;;;;;5078481;28;20409;-67
2022/12/08 01:57:17;;;;;;;3.00;0.10;;;1.00;99.90;;;;;;5064003;28;20490;-66
2022/12/08 01:59:47;;;;;;;1.58;0.10;;;2.60;99.90;;;;;;5081956;28;20040;-66
2022/12/08 02:02:13;;;;;;;5.63;0.10;;;2.50;99.90;;;;;;5109002;27;20067;-67
2022/12/08 02:04:38;;;;;;;4.95;0.10;;;1.70;99.90;;;;;;5080673;28;20210;-67
2022/12/08 02:07:07;;;;;;;2.10;0.10;;;1.70;99.90;;;;;;5063206;28;20044;-66
2022/12/08 02:09:33;;;;;;;0.60;0.10;;;1.10;99.90;;;;;;5110285;27;20048;-65
2022/12/08 02:12:00;;;;;;;4.22;0.17;;;2.40;99.90;;;;;;5047400;28;20054;-66
2022/12/08 02:14:25;;;;;;;3.30;0.10;;;-0.20;99.90;;;;;;5082255;28;20371;-66
2022/12/08 02:17:09;;;;;;;4.93;0.30;;;1.70;99.90;;;;;;5077950;28;20405;-66
2022/12/08 02:19:47;;;;;;;2.75;0.20;;;2.50;99.90;;;;;;5078248;28;20458;-66
2022/12/08 02:22:30;;;;;;;1.80;0.10;;;0.20;99.90;;;;;;5080100;28;20127;-67
2022/12/08 02:25:22;;;;;;;1.30;0.00;;;-0.20;99.90;;;;;;5078522;28;20313;-67
2022/12/08 02:27:53;;;;;;;1.55;0.00;;;0.50;99.90;;;;;;5081091;28;20288;-65
2022/12/08 02:30:41;;;;;;;5.72;0.73;;;0.50;99.90;;;;;;5078163;28;20502;-66
2022/12/08 02:33:13;;;;;;;0.73;0.10;;;1.10;99.90;;;;;;5107235;27;20142;-65
2022/12/08 02:36:15;;;;;;;1.73;0.10;;;0.20;99.90;;;;;;5079137;28;20378;-66
2022/12/08 02:38:54;;;;;;;4.60;0.30;;;2.70;99.90;;;;;;5077791;28;20135;-66
2022/12/08 02:41:51;;;;;;;1.52;0.10;;;2.20;99.90;;;;;;5092209;28;20212;-67
2022/12/08 02:44:29;;;;;;;1.90;0.20;;;0.10;99.90;;;;;;5061402;28;20536;-66
2022/12/08 02:47:07;;;;;;;1.35;0.10;;;2.30;99.90;;;;;;5109212;27;20047;-65
2022/12/08 02:49:34;;;;;;;2.20;0.10;;;2.80;99.90;;;;;;5107285;27;20048;-66
2022/12/08 02:52:23;;;;;;;1.38;0.10;;;1.10;99.90;;;;;;5109050;27;20059;-66
2022/12/08 02:54:54;;;;;;;2.55;0.20;;;0.40;99.90;;;;;;5066592;28;20093;-65
2022/12/08 02:57:26;;;;;;;2.22;0.20;;;1.20;99.90;;;;;;5077228;28;20067;-66
2022/12/08 03:00:03;;;;;;;4.63;0.10;;;2.90;99.90;;;;;;5077894;28;20355;-66
2022/12/08 03:02:29;;;;;;;1.65;0.10;;;0.20;99.90;;;;;;5076294;28;20048;-66
2022/12/08 03:05:32;;;;;;;2.88;0.10;;;1.40;99.90;;;;;;5058184;28;20136;-65
2022/12/08 03:08:21;;;;;;;5.30;0.10;;;2.90;99.90;;;;;;5060855;28;20183;-66
2022/12/08 03:11:02;;;;;;;1.55;0.08;;;2.70;99.90;;;;;;5058191;28;20070;-65
2022/12/08 03:13:47;;;;;;;1.02;0.00;;;0.60;99.90;;;;;;5079297;28;20047;-65
2022/12/08 03:16:19;;;;;;;3.75;0.10;;;1.50;99.90;;;;;;5078886;28;20044;-65
2022/12/08 03:18:55;;;;;;;1.65;0.10;;;3.00;99.90;;;;;;5061697;28;20068;-65
2022/12/08 03:21:21;;;;;;;1.95;0.10;;;3.20;99.90;;;;;;5077749;28;20076;-65
2022/12/08 03:23:51;;;;;;;1.50;0.10;;;0.50;99.90;;;;;;5065211;28;20496;-68
2022/12/08 03:26:40;;;;;;;3.47;0.10;;;3.00;99.90;;;;;;5080416;28;20465;-67
2022/12/08 03:29:06;;;;;;;2.10;0.10;;;2.00;99.90;;;;;;5066331;28;20263;-66
2022/12/08 03:31:38;;;;;;;2.08;0.10;;;0.60;99.90;;;;;;5066328;28;20080;-67
2022/12/08 03:34:04;;;;;;;1.73;0.10;;;0.10;99.90;;;;;;5083834;28;20031;-66
2022/12/08 03:36:31;;;;;;;4.65;0.25;;;2.40;99.90;;;;;;5082859;28;20040;-67
2022/12/08 03:38:56;;;;;;;1.65;0.10;;;0.70;99.90;;;;;;5081006;28;20383;-67
2022/12/08 03:41:22;;;;;;;1.58;0.10;;;2.20;99.90;;;;;;5062779;28;20043;-67
2022/12/08 03:43:53;;;;;;;3.03;0.10;;;2.90;99.90;;;;;;5065167;28;20113;-67
2022/12/08 03:46:22;;;;;;;3.95;0.20;;;1.50;99.90;;;;;;5081897;28;20054;-67
2022/12/08 03:48:48;;;;;;;1.27;0.10;;;0.80;99.90;;;;;;5080828;28;20218;-67
2022/12/08 03:51:14;;;;;;;2.20;0.10;;;0.30;99.90;;;;;;5088114;28;20062;-68
2022/12/08 03:53:40;;;;;;;1.45;0.10;;;1.90;99.90;;;;;;5093142;28;20448;-68
2022/12/08 03:56:14;;;;;;;1.23;0.20;;;0.20;99.90;;;;;;5082629;28;20119;-69
2022/12/08 03:58:39;;;;;;;3.08;0.10;;;2.90;99.90;;;;;;5080824;28;20044;-68
2022/12/08 04:01:05;;;;;;;6.25;0.20;;;0.60;99.90;;;;;;5080906;28;20050;-67
2022/12/08 04:03:31;;;;;;;0.60;0.10;;;3.00;99.90;;;;;;5081999;28;20047;-68
2022/12/08 04:05:59;;;;;;;1.45;0.10;;;2.10;99.90;;;;;;5044366;28;20052;-68
2022/12/08 04:08:25;;;;;;;2.45;0.17;;;0.70;99.90;;;;;;5077300;28;20079;-68
2022/12/08 04:10:51;;;;;;;4.32;0.20;;;0.30;99.90;;;;;;5062181;28;20194;-68
2022/12/08 04:13:17;;;;;;;1.27;0.10;;;2.00;99.90;;;;;;5078022;28;20106;-68
2022/12/08 04:15:47;;;;;;;3.70;0.10;;;0.20;99.90;;;;;;5046536;28;20043;-68
2022/12/08 04:18:13;;;;;;;3.20;0.80;;;1.20;99.90;;;;;;5080488;28;20036;-67
2022/12/08 04:20:43;;;;;;;1.60;0.10;;;1.90;99.90;;;;;;5107658;27;20075;-68
2022/12/08 04:23:09;;;;;;;2.40;0.10;;;2.90;99.90;;;;;;5110093;27;20133;-69
2022/12/08 04:25:35;;;;;;;1.85;0.10;;;0.30;99.90;;;;;;5075213;28;20039;-67
2022/12/08 04:28:02;;;;;;;1.50;0.05;;;0.70;99.90;;;;;;5090520;28;20116;-68
2022/12/08 04:30:28;;;;;;;1.90;0.10;;;0.40;99.90;;;;;;5087463;28;20087;-68
2022/12/08 04:32:54;;;;;;;2.05;0.20;;;0.30;99.90;;;;;;5079105;28;20048;-67
2022/12/08 04:35:20;;;;;;;3.90;0.10;;;0.20;99.90;;;;;;5074657;28;20089;-68
2022/12/08 04:37:46;;;;;;;0.63;0.10;;;2.50;99.90;;;;;;5077373;28;20758;-68
2022/12/08 04:40:12;;;;;;;0.80;0.00;;;0.20;99.90;;;;;;5078394;28;20047;-67
2022/12/08 04:42:38;;;;;;;0.85;0.10;;;0.50;99.90;;;;;;5077351;28;20399;-68
2022/12/08 04:45:04;;;;;;;1.65;0.10;;;3.20;99.90;;;;;;5061538;28;20078;-68
2022/12/08 04:47:30;;;;;;;3.20;0.10;;;2.50;99.90;;;;;;5080126;28;20086;-69
2022/12/08 04:49:55;;;;;;;2.60;0.10;;;0.50;99.90;;;;;;5062282;28;20139;-68
2022/12/08 04:52:21;;;;;;;2.47;0.30;;;3.20;99.90;;;;;;5094153;28;20112;-68
2022/12/08 04:54:47;;;;;;;2.08;0.10;;;2.10;99.90;;;;;;5083388;28;20409;-68
2022/12/08 04:57:13;;;;;;;2.17;0.10;;;0.50;99.90;;;;;;5085114;28;20042;-68
2022/12/08 04:59:38;;;;;;;2.65;0.10;;;1.20;99.90;;;;;;5064163;28;20046;-69
2022/12/08 05:02:04;;;;;;;4.53;0.38;;;1.10;99.90;;;;;;5080130;28;20074;-68
2022/12/08 05:04:30;;;;;;;2.92;0.10;;;3.20;99.90;;;;;;5045073;28;20036;-67
2022/12/08 05:06:56;;;;;;;3.88;0.10;;;1.60;99.90;;;;;;5104941;28;20039;-67
2022/12/08 05:09:21;;;;;;;1.77;0.20;;;1.30;99.90;;;;;;5086605;28;20044;-66
2022/12/08 05:11:47;;;;;;;2.40;0.15;;;0.70;99.90;;;;;;5115299;28;20044;-66
2022/12/08 05:14:17;;;;;;;2.83;0.20;;;0.90;99.90;;;;;;5082482;28;20044;-66
2022/12/08 05:16:45;;;;;;;3.22;0.38;;;0.40;99.90;;;;;;5084718;28;20044;-66
2022/12/08 05:19:12;;;;;;;2.50;0.43;;;2.00;99.90;;;;;;5118924;27;20032;-67
2022/12/08 05:21:38;;;;;;;2.90;0.20;;;2.70;99.90;;;;;;5114292;27;20049;-67
2022/12/08 05:24:04;;;;;;;3.17;0.10;;;3.20;99.90;;;;;;5087933;28;20475;-68
2022/12/08 05:26:30;;;;;;;3.08;0.10;;;0.40;99.90;;;;;;5053806;28;20150;-66
2022/12/08 05:28:55;;;;;;;2.28;0.10;;;1.50;99.90;;;;;;5084566;28;20044;-65
2022/12/08 05:31:21;;;;;;;4.30;0.20;;;2.60;99.90;;;;;;5069381;28;20056;-66
2022/12/08 05:33:49;;;;;;;1.50;0.10;;;0.30;99.90;;;;;;5068266;28;20853;-67
2022/12/08 05:36:15;;;;;;;4.10;0.10;;;0.60;99.90;;;;;;5082864;28;20129;-68
2022/12/08 05:38:42;;;;;;;4.03;0.10;;;0.20;99.90;;;;;;5076735;28;20083;-68
2022/12/08 05:41:10;;;;;;;2.95;0.20;;;1.90;99.90;;;;;;5079323;28;20048;-68
2022/12/08 05:43:36;;;;;;;1.95;0.20;;;2.70;99.90;;;;;;5093412;28;20546;-68
2022/12/08 05:46:02;;;;;;;3.05;0.20;;;2.80;99.90;;;;;;5076767;28;20097;-68
2022/12/08 05:48:27;;;;;;;3.95;0.10;;;0.00;99.90;;;;;;5109806;27;20801;-67
2022/12/08 05:50:53;;;;;;;2.90;0.10;;;1.70;99.90;;;;;;5075048;28;20096;-68
2022/12/08 05:53:19;;;;;;;4.00;0.20;;;0.20;99.90;;;;;;5092161;28;20040;-66
2022/12/08 05:55:46;;;;;;;6.15;0.20;;;1.90;99.90;;;;;;5045467;28;20603;-65
2022/12/08 05:58:17;;;;;;;5.63;0.20;;;0.40;99.90;;;;;;5062152;28;20044;-68
2022/12/08 06:00:44;;;;;;;3.22;0.20;;;2.30;99.90;;;;;;5058401;28;20120;-68
2022/12/08 06:03:11;;;;;;;3.90;0.10;;;0.30;99.90;;;;;;5043935;28;20048;-69
2022/12/08 06:05:40;;;;;;;4.95;0.30;;;-0.50;99.90;;;;;;5078801;28;20643;-66
2022/12/08 06:08:06;;;;;;;2.33;0.20;;;-0.60;99.90;;;;;;5091670;28;20039;-66
2022/12/08 06:10:32;;;;;;;7.78;0.40;;;0.10;99.90;;;;;;5067388;28;20054;-69
2022/12/08 06:12:58;;;;;;;7.63;0.30;;;1.40;99.90;;;;;;5062291;28;20036;-67
2022/12/08 06:15:24;;;;;;;5.55;0.20;;;2.10;99.90;;;;;;5078722;28;20474;-66
2022/12/08 06:17:50;;;;;;;6.10;0.63;;;0.10;99.90;;;;;;5064023;28;20094;-66
2022/12/08 06:20:16;;;;;;;5.43;0.40;;;1.90;99.90;;;;;;5077552;28;20534;-66
2022/12/08 06:22:44;;;;;;;3.90;0.30;;;2.00;99.90;;;;;;5078308;28;20146;-67
2022/12/08 06:25:10;;;;;;;2.83;0.20;;;-0.70;99.90;;;;;;5076758;28;20506;-67
2022/12/08 06:27:36;;;;;;;3.30;0.22;;;-0.60;99.90;;;;;;5078741;28;20040;-68
2022/12/08 06:30:02;;;;;;;8.07;0.60;;;-0.30;99.90;;;;;;5078609;28;20040;-69
2022/12/08 06:32:28;;;;;;;3.80;0.45;;;2.20;99.90;;;;;;5086032;28;20333;-68
2022/12/08 06:34:53;;;;;;;2.15;0.40;;;-0.70;99.90;;;;;;5061756;28;20098;-68
2022/12/08 06:37:19;;;;;;;5.75;0.75;;;1.40;99.90;;;;;;5077400;28;20501;-68
2022/12/08 06:39:44;;;;;;;3.83;0.40;;;-0.60;99.90;;;;;;5044169;28;20629;-67
2022/12/08 06:44:54;;;;;;;5.03;0.50;;;-0.80;99.90;;;;;;5108843;27;20122;-67
2022/12/08 06:47:20;;;;;;;4.90;0.50;;;1.30;99.90;;;;;;5073924;28;20335;-67
2022/12/08 06:49:46;;;;;;;6.32;1.00;;;-0.40;99.90;;;;;;5061009;28;20036;-67
2022/12/08 06:52:12;;;;;;;5.45;0.80;;;0.60;99.90;;;;;;5077933;28;20569;-68
2022/12/08 06:54:37;;;;;;;7.10;1.10;;;-0.10;99.90;;;;;;5044624;28;20459;-66
2022/12/08 06:57:03;;;;;;;5.43;1.20;;;-0.20;99.90;;;;;;5077772;28;20040;-66
2022/12/08 06:59:29;;;;;;;6.00;1.02;;;1.10;99.90;;;;;;5077235;28;20048;-66
2022/12/08 07:01:55;;;;;;;7.13;1.58;;;1.50;99.90;;;;;;5077056;28;20036;-67
2022/12/08 07:04:20;;;;;;;8.05;1.50;;;0.90;99.90;;;;;;5073489;28;20110;-66
2022/12/08 07:06:46;;;;;;;3.75;1.55;;;-0.50;99.90;;;;;;5094387;28;20810;-67
2022/12/08 07:09:12;;;;;;;4.57;1.67;;;0.30;99.90;;;;;;5060067;28;20039;-67
2022/12/08 07:11:38;;;;;;;5.60;1.58;;;1.40;99.90;;;;;;5090140;28;20172;-66
2022/12/08 07:14:04;;;;;;;8.98;1.73;;;2.10;99.90;;;;;;5044125;28;20067;-68
2022/12/08 07:16:29;;;;;;;6.93;1.73;;;-0.20;99.90;;;;;;5078969;28;20067;-67
2022/12/08 07:18:55;;;;;;;5.30;1.50;;;1.70;99.90;;;;;;5056628;28;20054;-65
2022/12/08 07:21:21;;;;;;;6.93;1.40;;;0.90;99.90;;;;;;5042546;28;20076;-65
2022/12/08 07:23:48;;;;;;;8.70;1.33;;;0.30;99.90;;;;;;5060669;28;20098;-65
2022/12/08 07:26:14;;;;;;;5.30;1.42;;;0.40;99.90;;;;;;5059273;28;20398;-66
2022/12/08 07:28:41;;;;;;;7.05;1.17;;;-0.70;99.90;;;;;;5077679;28;20548;-65
2022/12/08 07:31:14;;;;;;;9.23;2.20;;;1.90;99.90;;;;;;5075688;28;20075;-65
2022/12/08 07:33:40;;;;;;;6.10;1.80;;;0.20;99.90;;;;;;5076059;28;20567;-66
2022/12/08 07:36:07;;;;;;;17.60;7.43;;;0.80;99.90;;;;;;5088430;28;20032;-66
2022/12/08 07:38:33;;;;;;;10.48;3.63;;;-0.20;99.90;;;;;;5042449;28;20135;-66
2022/12/08 07:40:59;;;;;;;9.73;2.95;;;1.40;99.90;;;;;;5075370;28;20074;-66
2022/12/08 07:43:24;;;;;;;15.35;3.45;;;-0.10;99.90;;;;;;5076906;28;20043;-66
2022/12/08 07:45:50;;;;;;;14.60;4.30;;;1.60;99.90;;;;;;5085107;28;20127;-67
2022/12/08 07:48:17;;;;;;;16.98;5.25;;;-0.70;99.90;;;;;;5060761;28;20245;-68
2022/12/08 07:50:43;;;;;;;16.52;4.75;;;-0.70;99.90;;;;;;5088366;27;20058;-67
2022/12/08 07:53:09;;;;;;;17.20;5.65;;;1.30;99.90;;;;;;5078028;28;20752;-67
2022/12/08 07:55:39;;;;;;;20.45;8.02;;;-0.50;99.90;;;;;;5111483;27;20118;-67
2022/12/08 07:58:05;;;;;;;19.20;5.70;;;0.10;99.90;;;;;;5059809;28;20048;-67
2022/12/08 08:00:31;;;;;;;13.30;6.38;;;1.50;99.90;;;;;;5059549;28;20051;-67
2022/12/08 08:02:57;;;;;;;12.02;5.95;;;-0.40;99.90;;;;;;5076268;28;20055;-67
2022/12/08 08:05:22;;;;;;;13.77;6.90;;;1.80;99.90;;;;;;5074791;28;20040;-68
2022/12/08 08:07:48;;;;;;;15.98;6.70;;;1.30;99.90;;;;;;5056502;28;20371;-66
2022/12/08 08:10:14;;;;;;;13.57;6.43;;;0.00;99.90;;;;;;5075574;28;20314;-66
2022/12/08 08:12:40;;;;;;;13.13;6.28;;;-0.20;99.90;;;;;;5056897;28;20035;-67
2022/12/08 08:15:07;;;;;;;13.57;6.75;;;-0.40;99.90;;;;;;5077034;28;20333;-67
2022/12/08 08:17:34;;;;;;;14.50;5.80;;;0.30;99.90;;;;;;5076723;28;20555;-68
2022/12/08 08:20:00;;;;;;;13.13;6.85;;;-0.10;99.90;;;;;;5074971;28;20249;-69
2022/12/08 08:22:26;;;;;;;16.88;8.05;;;1.80;99.90;;;;;;5072442;28;20663;-68
2022/12/08 08:24:53;;;;;;;17.02;7.65;;;-0.60;99.90;;;;;;5077442;28;20046;-69
2022/12/08 08:27:18;;;;;;;15.90;6.85;;;1.80;99.90;;;;;;5108119;27;20040;-68
2022/12/08 08:29:44;;;;;;;17.15;6.82;;;-0.40;99.90;;;;;;5075063;28;20032;-67
2022/12/08 08:32:10;;;;;;;17.33;7.15;;;1.70;99.90;;;;;;5075235;28;20149;-68
2022/12/08 08:34:37;;;;;;;9.25;4.93;;;1.60;99.90;;;;;;5058327;28;20067;-66
2022/12/08 08:37:02;;;;;;;11.02;4.82;;;1.90;99.90;;;;;;5075420;28;20476;-66
2022/12/08 08:39:30;;;;;;;12.52;4.22;;;1.60;99.90;;;;;;5071670;28;20047;-67
2022/12/08 08:41:56;;;;;;;9.10;4.40;;;-0.50;99.90;;;;;;5042220;28;20157;-67
2022/12/08 08:44:22;;;;;;;8.35;4.55;;;1.20;99.90;;;;;;5073830;28;20044;-67
2022/12/08 08:46:47;;;;;;;10.75;4.15;;;-0.30;99.90;;;;;;5075545;28;20181;-66
2022/12/08 08:49:13;;;;;;;9.20;3.95;;;0.30;99.90;;;;;;5075624;28;20101;-66
2022/12/08 08:51:38;;;;;;;8.85;4.53;;;2.00;99.90;;;;;;5075850;28;20483;-66
2022/12/08 08:54:04;;;;;;;7.47;4.47;;;-0.30;99.90;;;;;;5073948;28;20044;-65
2022/12/08 08:56:30;;;;;;;7.72;4.78;;;0.30;99.90;;;;;;5078396;28;20042;-66
2022/12/08 08:58:56;;;;;;;6.07;3.78;;;0.10;99.90;;;;;;5075346;28;20044;-66
2022/12/08 09:01:24;;;;;;;11.98;4.63;;;0.90;99.90;;;;;;5075166;28;20394;-65
2022/12/08 09:03:50;;;;;;;8.77;4.10;;;2.60;99.90;;;;;;5077005;28;20434;-66
2022/12/08 09:06:16;;;;;;;5.82;3.60;;;-0.20;99.90;;;;;;5074086;28;20062;-65
2022/12/08 09:08:42;;;;;;;9.45;3.45;;;-0.20;99.90;;;;;;5107575;28;20055;-65
2022/12/08 09:11:09;;;;;;;7.97;2.90;;;0.10;99.90;;;;;;5072530;28;20058;-65
2022/12/08 09:13:35;;;;;;;7.95;3.53;;;2.80;99.90;;;;;;5076374;28;20043;-66
2022/12/08 09:16:06;;;;;;;8.98;3.55;;;2.80;99.90;;;;;;5075494;28;20261;-67
2022/12/08 09:18:32;;;;;;;5.95;3.17;;;0.80;99.90;;;;;;5108474;28;20100;-66
2022/12/08 09:21:11;;;;;;;7.03;2.80;;;2.80;99.90;;;;;;5075951;28;20040;-64
2022/12/08 09:23:37;;;;;;;7.95;2.78;;;0.40;99.90;;;;;;5076659;28;20131;-65
2022/12/08 09:26:04;;;;;;;7.10;2.28;;;1.80;99.90;;;;;;5073061;28;20123;-65
2022/12/08 09:28:30;;;;;;;8.00;2.20;;;2.10;99.90;;;;;;5108773;28;20044;-66
2022/12/08 09:30:56;;;;;;;6.70;2.42;;;0.30;99.90;;;;;;5073462;28;20056;-66
2022/12/08 09:33:21;;;;;;;6.40;1.85;;;0.20;99.90;;;;;;5076359;28;20367;-67
2022/12/08 09:35:47;;;;;;;7.97;2.30;;;3.10;99.90;;;;;;5076745;28;20478;-66
2022/12/08 09:38:13;;;;;;;12.18;2.42;;;0.70;99.90;;;;;;5075555;28;20191;-66
2022/12/08 09:40:53;;;;;;;9.52;2.30;;;3.20;99.90;;;;;;5060640;28;20040;-66
2022/12/08 09:43:41;;;;;;;10.25;2.15;;;3.10;99.90;;;;;;5056700;28;20115;-67
2022/12/08 09:46:10;;;;;;;5.03;1.50;;;2.70;99.90;;;;;;5076440;28;20071;-65
2022/12/08 09:48:57;;;;;;;7.45;1.30;;;3.20;99.90;;;;;;5078148;28;20071;-67
2022/12/08 09:51:26;;;;;;;3.90;0.73;;;2.70;99.90;;;;;;5081588;28;20028;-68
2022/12/08 09:54:00;;;;;;;4.80;0.65;;;2.80;99.90;;;;;;5075191;28;20040;-66
2022/12/08 09:56:29;;;;;;;2.95;0.55;;;1.90;99.90;;;;;;5073637;28;20162;-68
2022/12/08 09:59:03;;;;;;;2.88;0.40;;;2.10;99.90;;;;;;5073053;28;20035;-69
2022/12/08 10:01:31;;;;;;;5.40;0.30;;;3.00;99.90;;;;;;5075217;28;20040;-68
2022/12/08 10:03:58;;;;;;;3.35;0.20;;;3.70;99.90;;;;;;5077214;28;20055;-68
2022/12/08 10:06:43;;;;;;;3.78;0.38;;;3.40;99.90;;;;;;5078046;28;20044;-69
2022/12/08 10:09:14;;;;;;;2.42;0.28;;;3.70;99.90;;;;;;5077139;28;20542;-68
2022/12/08 10:11:56;;;;;;;1.77;0.30;;;4.30;99.90;;;;;;5061476;28;20745;-69
2022/12/08 10:14:52;;;;;;;4.82;0.77;;;4.00;99.90;;;;;;5074421;28;20126;-68
2022/12/08 10:17:39;;;;;;;3.60;0.63;;;3.90;99.90;;;;;;5076797;28;20451;-68
2022/12/08 10:20:15;;;;;;;3.80;0.50;;;3.80;99.90;;;;;;5060883;28;20276;-68
2022/12/08 10:22:42;;;;;;;3.65;0.40;;;2.70;99.90;;;;;;5077666;28;20584;-69
2022/12/08 10:25:29;;;;;;;5.68;0.47;;;2.60;99.90;;;;;;5110125;27;20414;-68
2022/12/08 10:27:57;;;;;;;4.35;0.50;;;3.40;99.90;;;;;;5060868;28;20112;-69
2022/12/08 10:30:23;;;;;;;3.63;0.60;;;2.90;99.90;;;;;;5090497;27;20040;-68
2022/12/08 10:32:50;;;;;;;6.13;0.40;;;3.90;99.90;;;;;;5075209;28;20108;-67
2022/12/08 10:35:19;;;;;;;5.57;0.28;;;5.50;99.90;;;;;;5109844;27;20191;-69
2022/12/08 10:38:02;;;;;;;2.92;0.20;;;6.10;99.90;;;;;;5066029;28;20130;-69
2022/12/08 10:40:34;;;;;;;2.42;0.30;;;6.30;99.90;;;;;;5107528;27;20056;-68
2022/12/08 10:43:03;;;;;;;2.00;0.20;;;6.90;99.90;;;;;;5058935;28;20375;-68
2022/12/08 10:45:32;;;;;;;3.65;0.20;;;7.20;99.90;;;;;;5057695;28;20428;-69
2022/12/08 10:48:17;;;;;;;4.20;0.30;;;7.80;99.90;;;;;;5076923;28;20260;-68
2022/12/08 10:50:53;;;;;;;2.63;0.38;;;7.90;99.90;;;;;;5077407;28;20052;-68
2022/12/08 10:53:27;;;;;;;2.85;0.40;;;7.70;99.90;;;;;;5076719;28;20079;-69
2022/12/08 10:56:13;;;;;;;4.50;0.32;;;7.70;99.90;;;;;;5107760;27;20085;-68
2022/12/08 10:58:41;;;;;;;3.03;0.20;;;8.00;99.90;;;;;;5059912;28;20056;-68
2022/12/08 11:01:15;;;;;;;6.43;0.30;;;7.80;99.90;;;;;;5073765;28;20048;-69
2022/12/08 11:03:48;;;;;;;3.45;0.20;;;7.80;99.90;;;;;;5075827;28;20036;-68
2022/12/08 11:06:22;;;;;;;5.25;0.32;;;7.80;99.90;;;;;;5076823;28;20066;-70
2022/12/08 11:08:57;;;;;;;3.20;0.30;;;7.90;99.90;;;;;;5076416;28;20128;-69
2022/12/08 11:11:38;;;;;;;2.60;0.30;;;8.20;99.90;;;;;;5058057;28;20700;-69
2022/12/08 11:14:07;;;;;;;4.45;0.25;;;8.40;99.90;;;;;;5076639;28;20119;-69
2022/12/08 11:16:33;;;;;;;2.63;0.30;;;8.40;99.90;;;;;;5106898;27;20588;-68
2022/12/08 11:19:06;;;;;;;2.30;0.28;;;8.30;99.90;;;;;;5074231;28;20044;-67
2022/12/08 11:21:36;;;;;;;4.07;0.43;;;8.30;99.90;;;;;;5059360;28;20036;-68
2022/12/08 11:24:22;;;;;;;3.83;0.28;;;8.20;99.90;;;;;;5076399;28;20036;-67
2022/12/08 11:27:03;;;;;;;6.25;0.30;;;8.00;99.90;;;;;;5077943;28;20039;-67
2022/12/08 11:29:31;;;;;;;3.95;0.35;;;8.50;99.90;;;;;;5059798;28;20226;-68
2022/12/08 11:32:05;;;;;;;2.63;0.30;;;8.60;99.90;;;;;;5076452;28;20418;-67
2022/12/08 11:34:52;;;;;;;2.95;0.25;;;8.40;99.90;;;;;;5071384;28;20042;-68
2022/12/08 11:37:32;;;;;;;2.88;0.30;;;8.20;99.90;;;;;;5107650;27;20177;-66
2022/12/08 11:40:02;;;;;;;2.78;0.20;;;8.10;99.90;;;;;;5077503;28;20052;-69
2022/12/08 11:42:43;;;;;;;3.10;0.20;;;8.40;99.90;;;;;;5076564;28;20048;-68
2022/12/08 11:45:19;;;;;;;1.98;0.20;;;8.60;99.90;;;;;;5094274;28;20158;-69
2022/12/08 11:48:12;;;;;;;1.70;0.10;;;9.10;99.90;;;;;;5074759;28;20051;-68
2022/12/08 11:51:10;;;;;;;1.75;0.17;;;8.90;99.90;;;;;;5087886;28;20391;-68
2022/12/08 11:53:45;;;;;;;0.95;0.10;;;8.70;99.90;;;;;;5075081;28;20105;-67
2022/12/08 11:56:43;;;;;;;2.70;0.15;;;8.90;99.90;;;;;;5086882;28;20067;-68
2022/12/08 11:59:29;;;;;;;2.85;0.30;;;8.80;99.90;;;;;;5052753;28;20485;-68
2022/12/08 12:02:00;;;;;;;2.53;0.15;;;8.70;99.90;;;;;;5075651;28;20040;-68
2022/12/08 12:04:56;;;;;;;1.35;0.10;;;8.70;99.90;;;;;;5105955;27;20150;-69
2022/12/08 12:07:41;;;;;;;2.13;0.20;;;8.50;99.90;;;;;;5106767;27;20802;-69
2022/12/08 12:10:18;;;;;;;2.10;0.10;;;7.80;99.90;;;;;;5058497;28;20040;-68
2022/12/08 12:13:03;;;;;;;5.05;0.50;;;7.30;99.90;;;;;;5074183;28;20501;-67
2022/12/08 12:15:59;;;;;;;1.60;0.20;;;7.20;99.90;;;;;;5078000;28;20048;-66
2022/12/08 12:18:34;;;;;;;1.00;0.10;;;7.40;99.90;;;;;;5078416;28;20115;-66
2022/12/08 12:21:09;;;;;;;1.65;0.10;;;7.40;99.90;;;;;;5074161;28;20212;-66
2022/12/08 12:23:55;;;;;;;2.38;0.10;;;7.00;99.90;;;;;;5076690;28;20684;-66
2022/12/08 12:26:35;;;;;;;1.95;0.20;;;7.30;99.90;;;;;;5058348;28;20040;-65
2022/12/08 12:29:29;;;;;;;2.33;0.10;;;7.10;99.90;;;;;;5104767;27;20489;-67
2022/12/08 12:32:01;;;;;;;2.67;0.17;;;6.20;99.90;;;;;;5102995;27;20078;-67
2022/12/08 12:34:30;;;;;;;4.63;0.28;;;6.00;99.90;;;;;;5107158;27;20047;-66
2022/12/08 12:37:09;;;;;;;3.53;0.20;;;5.60;99.90;;;;;;5102420;27;20040;-66
2022/12/08 12:40:19;;;;;;;3.20;0.15;;;5.50;99.90;;;;;;5075091;28;20051;-67
2022/12/08 12:42:49;;;;;;;1.45;0.10;;;5.00;99.90;;;;;;5041889;28;20453;-67
2022/12/08 12:45:15;;;;;;;3.45;0.20;;;5.00;99.90;;;;;;5056322;28;20179;-65
2022/12/08 12:47:44;;;;;;;2.67;0.10;;;4.80;99.90;;;;;;5075871;28;20508;-66
2022/12/08 12:50:12;;;;;;;2.22;0.20;;;5.30;99.90;;;;;;5057826;28;20082;-66
2022/12/08 12:52:38;;;;;;;1.80;0.17;;;5.30;99.90;;;;;;5052623;28;20443;-66
2022/12/08 12:55:10;;;;;;;2.38;0.30;;;5.20;99.90;;;;;;5057640;28;20039;-65
2022/12/08 12:57:49;;;;;;;1.27;0.10;;;5.50;99.90;;;;;;5074551;28;20040;-65
2022/12/08 13:00:21;;;;;;;3.58;0.10;;;5.70;99.90;;;;;;5073643;28;20040;-64
2022/12/08 13:02:48;;;;;;;1.23;0.10;;;5.40;99.90;;;;;;5077663;28;20046;-65
2022/12/08 13:05:18;;;;;;;0.47;0.03;;;5.20;99.90;;;;;;5077400;28;20043;-66
2022/12/08 13:07:47;;;;;;;3.35;0.10;;;4.80;99.90;;;;;;5072280;28;20686;-66
2022/12/08 13:10:25;;;;;;;1.35;0.10;;;4.60;99.90;;;;;;5077914;28;20419;-65
2022/12/08 13:13:02;;;;;;;2.05;0.10;;;4.70;99.90;;;;;;5075665;28;20052;-65
2022/12/08 13:15:34;;;;;;;2.70;0.10;;;4.70;99.90;;;;;;5057482;28;20032;-64
2022/12/08 13:18:00;;;;;;;2.40;0.22;;;4.60;99.90;;;;;;5076502;28;20040;-66
2022/12/08 13:20:27;;;;;;;1.25;0.10;;;5.20;99.90;;;;;;5040096;28;20044;-66